Time;durP1;ratioP1;P1;durP2;ratioP2;P2;SDS_P1;SDS_P2;PMS_P1;PMS_P2;Temp;Humidity;BMP_temperature;BMP_pressure;BME280_temperature;BME280_humidity;BME280_pressure;Samples;Min_cycle;Max_cycle;Signal;HPM_P1;HPM_P2
2022/07/02 00:00:57;;;;;;;3.35;2.70;;;;;;;16.02;85.62;101029.16;4933427;28;20068;-73
2022/07/02 00:03:30;;;;;;;5.32;2.72;;;;;;;16.00;85.64;101025.72;4932870;28;20056;-74
2022/07/02 00:05:58;;;;;;;4.00;2.40;;;;;;;15.98;85.45;101024.06;4933071;28;20051;-72
2022/07/02 00:08:27;;;;;;;4.38;2.42;;;;;;;15.92;85.68;101019.09;4933434;28;20048;-74
2022/07/02 00:10:55;;;;;;;2.88;2.13;;;;;;;15.90;84.77;101023.69;4933493;28;20047;-72
2022/07/02 00:13:24;;;;;;;2.88;2.58;;;;;;;15.78;84.45;101026.09;4935901;28;20048;-72
2022/07/02 00:15:50;;;;;;;2.95;2.20;;;;;;;15.71;84.70;101023.91;4934459;28;20102;-73
2022/07/02 00:18:18;;;;;;;2.70;2.50;;;;;;;15.66;85.16;101016.16;4932430;28;20051;-73
2022/07/02 00:20:46;;;;;;;2.40;2.20;;;;;;;15.69;85.18;101031.13;4931518;28;20504;-73
2022/07/02 00:23:13;;;;;;;3.30;2.33;;;;;;;15.78;85.14;101026.09;4932838;28;20170;-74
2022/07/02 00:25:48;;;;;;;2.80;2.60;;;;;;;15.77;84.62;101024.38;4932608;28;20106;-73
2022/07/02 00:28:16;;;;;;;4.55;2.47;;;;;;;15.77;84.49;101031.53;4927947;28;20738;-73
2022/07/02 00:30:45;;;;;;;2.60;2.35;;;;;;;15.68;84.02;101016.94;4927092;28;20055;-72
2022/07/02 00:33:16;;;;;;;4.75;2.78;;;;;;;15.64;84.18;101023.38;4932407;28;20083;-72
2022/07/02 00:35:43;;;;;;;;;;;;;;;15.61;84.68;101031.56;4928802;28;20102;-73
2022/07/02 00:38:10;;;;;;;3.97;2.50;;;;;;;15.54;85.06;101018.66;4930840;28;20762;-74
2022/07/02 00:40:38;;;;;;;3.65;2.30;;;;;;;15.60;85.08;101027.16;4931135;29;20075;-73
2022/07/02 00:43:05;;;;;;;3.80;2.80;;;;;;;15.52;85.38;101026.72;4932839;28;20117;-73
2022/07/02 00:45:34;;;;;;;4.95;2.80;;;;;;;15.44;86.04;101023.63;4932152;28;20107;-74
2022/07/02 00:48:01;;;;;;;2.72;2.35;;;;;;;15.47;86.12;101038.63;4931680;28;20134;-72
2022/07/02 00:50:28;;;;;;;4.00;2.58;;;;;;;15.50;86.20;101035.78;4931638;28;20540;-72
2022/07/02 00:52:55;;;;;;;5.00;2.30;;;;;;;15.47;85.06;101033.28;4933289;28;20051;-73
2022/07/02 00:55:22;;;;;;;4.47;2.70;;;;;;;15.37;85.23;101030.28;4933639;28;20492;-74
2022/07/02 00:57:48;;;;;;;2.25;2.05;;;;;;;15.31;85.94;101039.47;4934933;28;20056;-72
2022/07/02 01:00:17;;;;;;;2.67;2.40;;;;;;;15.31;86.44;101038.63;4932501;28;20055;-72
2022/07/02 01:02:44;;;;;;;3.50;2.30;;;;;;;15.34;86.30;101030.44;4932265;28;20527;-72
2022/07/02 01:05:15;;;;;;;7.60;2.63;;;;;;;15.37;85.55;101035.63;4931762;28;20138;-72
2022/07/02 01:07:46;;;;;;;4.65;2.65;;;;;;;15.34;85.72;101023.31;4930572;28;20543;-72
2022/07/02 01:10:17;;;;;;;4.07;2.58;;;;;;;15.26;85.68;101036.22;4929272;28;20051;-72
2022/07/02 01:12:45;;;;;;;4.18;2.40;;;;;;;15.18;86.78;101040.25;4932571;28;20051;-72
2022/07/02 01:15:13;;;;;;;6.85;2.88;;;;;;;15.06;87.26;101032.00;4932781;28;20142;-72
2022/07/02 01:17:40;;;;;;;4.15;2.40;;;;;;;14.94;87.72;101010.50;4930524;28;20099;-72
2022/07/02 01:20:08;;;;;;;3.20;2.60;;;;;;;14.97;87.59;101031.63;4930298;28;20099;-71
2022/07/02 01:22:39;;;;;;;5.38;2.78;;;;;;;14.93;87.68;101028.28;4930882;28;20067;-73
2022/07/02 01:25:07;;;;;;;5.30;2.95;;;;;;;14.91;88.22;101032.84;4931340;28;20063;-72
2022/07/02 01:27:34;;;;;;;2.58;2.38;;;;;;;14.91;88.66;101023.97;4931399;28;20052;-74
2022/07/02 01:30:03;;;;;;;3.00;2.33;;;;;;;14.90;88.14;101019.59;4930877;28;20069;-74
2022/07/02 01:32:30;;;;;;;4.85;3.08;;;;;;;14.92;88.06;101028.38;4930524;28;20107;-74
2022/07/02 01:35:05;;;;;;;5.90;2.70;;;;;;;14.87;88.13;101030.44;4931179;28;20055;-73
2022/07/02 01:37:32;;;;;;;3.10;2.55;;;;;;;14.85;88.37;101019.84;4930796;28;20071;-73
2022/07/02 01:39:58;;;;;;;3.72;2.30;;;;;;;14.81;88.09;101017.41;4930744;28;20464;-72
2022/07/02 01:42:25;;;;;;;6.07;3.03;;;;;;;14.80;87.91;101023.69;4930928;28;20059;-74
2022/07/02 01:44:52;;;;;;;5.03;2.50;;;;;;;14.77;88.66;101034.53;4931239;28;20477;-71
2022/07/02 01:47:19;;;;;;;4.22;2.85;;;;;;;14.73;88.25;101039.16;4930494;28;20075;-73
2022/07/02 01:49:45;;;;;;;3.47;2.80;;;;;;;14.71;88.76;101025.94;4930210;28;20118;-73
2022/07/02 01:52:14;;;;;;;5.53;2.83;;;;;;;14.69;89.33;101032.28;4929937;28;20075;-72
2022/07/02 01:54:42;;;;;;;2.85;2.47;;;;;;;14.72;89.68;101042.78;4930910;28;20048;-74
2022/07/02 01:57:09;;;;;;;3.70;2.80;;;;;;;14.68;89.83;101030.56;4930590;28;20497;-73
2022/07/02 01:59:36;;;;;;;3.30;3.00;;;;;;;14.60;90.73;101019.47;4929704;28;20075;-73
2022/07/02 02:02:04;;;;;;;4.32;2.47;;;;;;;14.61;90.26;101021.19;4930644;28;20075;-73
2022/07/02 02:04:31;;;;;;;3.45;2.50;;;;;;;14.68;91.09;101030.56;4930258;28;20067;-72
2022/07/02 02:06:58;;;;;;;3.00;2.75;;;;;;;14.58;91.61;101032.00;4930708;28;20055;-72
2022/07/02 02:09:24;;;;;;;4.97;2.63;;;;;;;14.51;91.81;101034.13;4927509;28;20059;-72
2022/07/02 02:11:51;;;;;;;2.90;2.60;;;;;;;14.53;93.13;101026.03;4930560;28;20095;-72
2022/07/02 02:14:18;;;;;;;3.25;2.92;;;;;;;14.39;93.29;101008.09;4929694;28;20099;-73
2022/07/02 02:16:44;;;;;;;5.88;3.20;;;;;;;14.46;93.71;101020.19;4930363;28;20043;-73
2022/07/02 02:19:12;;;;;;;3.80;2.85;;;;;;;14.46;93.67;101014.00;4929822;28;20075;-72
2022/07/02 02:21:39;;;;;;;5.40;3.30;;;;;;;14.51;93.88;101027.94;4929990;28;20052;-73
2022/07/02 02:24:06;;;;;;;5.25;3.30;;;;;;;14.52;93.88;101038.50;4930429;28;20056;-71
2022/07/02 02:26:33;;;;;;;3.28;2.97;;;;;;;14.50;94.55;101037.72;4929983;28;20044;-72
2022/07/02 02:28:59;;;;;;;4.55;2.90;;;;;;;14.35;94.98;101011.84;4930351;28;20074;-72
2022/07/02 02:31:27;;;;;;;5.03;3.38;;;;;;;14.41;94.94;101034.69;4931920;28;20153;-72
2022/07/02 02:33:54;;;;;;;4.38;3.47;;;;;;;14.36;95.53;101048.22;4930078;28;20055;-74
2022/07/02 02:36:20;;;;;;;5.13;3.70;;;;;;;14.18;96.31;101022.53;4929674;28;20055;-71
2022/07/02 02:38:48;;;;;;;6.00;3.47;;;;;;;14.22;96.85;101048.06;4925375;29;20555;-73
2022/07/02 02:41:14;;;;;;;5.25;3.65;;;;;;;14.18;97.09;101050.03;4930278;28;20504;-72
2022/07/02 02:43:42;;;;;;;5.03;3.70;;;;;;;14.13;97.61;101045.91;4929803;28;20087;-73
2022/07/02 02:46:09;;;;;;;5.28;3.78;;;;;;;14.08;98.35;101051.44;4929471;28;20480;-71
2022/07/02 02:48:36;;;;;;;3.65;3.28;;;;;;;14.11;98.96;101050.44;4929519;28;20079;-73
2022/07/02 02:51:04;;;;;;;5.68;3.67;;;;;;;14.11;99.11;101045.97;4930049;28;20138;-72
2022/07/02 02:53:31;;;;;;;4.40;3.58;;;;;;;14.08;98.98;101059.44;4929977;28;20047;-72
2022/07/02 02:55:59;;;;;;;4.35;3.38;;;;;;;14.02;99.61;101049.09;4930266;28;20114;-73
2022/07/02 02:58:27;;;;;;;4.78;3.80;;;;;;;13.94;99.82;101043.31;4928443;28;20059;-73
2022/07/02 03:00:54;;;;;;;5.35;3.92;;;;;;;13.98;100.00;101058.19;4929473;28;20500;-72
2022/07/02 03:03:21;;;;;;;4.97;3.85;;;;;;;13.97;100.00;101048.47;4929471;28;20054;-72
2022/07/02 03:05:48;;;;;;;6.75;4.22;;;;;;;13.94;100.00;101051.28;4930114;28;20056;-72
2022/07/02 03:08:15;;;;;;;5.10;3.97;;;;;;;13.88;99.85;101049.78;4927950;28;20060;-71
2022/07/02 03:10:41;;;;;;;4.32;3.50;;;;;;;13.88;99.98;101051.59;4929548;28;20048;-72
2022/07/02 03:13:08;;;;;;;4.45;3.95;;;;;;;13.91;100.00;101059.44;4930769;28;20139;-72
2022/07/02 03:15:35;;;;;;;7.07;3.83;;;;;;;13.84;99.58;101060.69;4929515;29;20115;-72
2022/07/02 03:18:02;;;;;;;6.70;3.85;;;;;;;13.81;99.62;101066.16;4929258;28;20086;-71
2022/07/02 03:20:29;;;;;;;5.32;3.97;;;;;;;13.75;99.86;101063.78;4928514;28;20119;-72
2022/07/02 03:22:57;;;;;;;4.15;3.75;;;;;;;13.73;99.69;101071.84;4929651;28;20120;-72
2022/07/02 03:25:23;;;;;;;5.43;3.63;;;;;;;13.73;99.63;101074.50;4929171;28;20056;-72
2022/07/02 03:27:50;;;;;;;4.45;4.03;;;;;;;13.76;99.21;101073.50;4929191;28;20068;-73
2022/07/02 03:30:17;;;;;;;3.80;3.42;;;;;;;13.79;98.83;101071.56;4928710;28;20120;-72
2022/07/02 03:32:44;;;;;;;6.15;3.72;;;;;;;13.81;97.98;101079.47;4929417;28;20051;-72
2022/07/02 03:35:10;;;;;;;3.78;3.13;;;;;;;13.77;97.77;101072.56;4929659;28;20075;-72
2022/07/02 03:37:37;;;;;;;4.63;3.65;;;;;;;13.78;97.99;101079.63;4929948;28;20107;-73
2022/07/02 03:40:04;;;;;;;4.68;3.45;;;;;;;13.83;97.45;101077.59;4924645;29;20094;-72
2022/07/02 03:42:31;;;;;;;6.47;3.75;;;;;;;13.86;97.43;101077.41;4926990;28;20072;-72
2022/07/02 03:44:57;;;;;;;4.10;3.40;;;;;;;13.80;96.45;101070.63;4929348;28;20043;-73
2022/07/02 03:47:24;;;;;;;8.82;3.30;;;;;;;13.81;95.92;101080.34;4929447;28;20554;-73
2022/07/02 03:49:50;;;;;;;7.05;3.97;;;;;;;13.84;96.40;101076.66;4928273;28;20078;-72
2022/07/02 03:52:17;;;;;;;17.75;10.10;;;;;;;13.87;95.60;101088.00;4928346;28;20569;-73
2022/07/02 03:54:44;;;;;;;5.13;4.00;;;;;;;13.92;95.52;101091.31;4929235;28;20115;-72
2022/07/02 03:57:10;;;;;;;7.13;4.13;;;;;;;13.83;94.81;101086.44;4926440;28;20060;-73
2022/07/02 03:59:37;;;;;;;4.50;3.50;;;;;;;13.64;95.89;101070.50;4928457;28;20216;-72
2022/07/02 04:02:04;;;;;;;6.03;3.70;;;;;;;13.70;96.61;101088.81;4929486;28;20067;-71
2022/07/02 04:04:30;;;;;;;5.55;4.20;;;;;;;13.74;96.31;101086.03;4927901;28;20067;-72
2022/07/02 04:06:57;;;;;;;5.78;3.92;;;;;;;13.66;96.92;101083.75;4929448;28;20052;-73
2022/07/02 04:09:24;;;;;;;4.93;3.72;;;;;;;13.55;96.94;101073.59;4927687;28;20059;-73
2022/07/02 04:11:51;;;;;;;6.97;3.90;;;;;;;13.67;97.46;101099.66;4927956;29;20445;-72
2022/07/02 04:14:17;;;;;;;4.78;3.63;;;;;;;13.65;97.94;101092.66;4928093;28;20154;-71
2022/07/02 04:16:44;;;;;;;5.63;4.10;;;;;;;13.72;97.42;101102.06;4929243;28;20052;-72
2022/07/02 04:19:11;;;;;;;4.90;4.40;;;;;;;13.73;97.56;101102.91;4928330;28;20500;-72
2022/07/02 04:21:40;;;;;;;8.35;4.05;;;;;;;13.65;97.64;101103.31;4929839;28;20055;-72
2022/07/02 04:24:07;;;;;;;6.13;4.32;;;;;;;13.64;97.73;101099.78;4932682;28;20048;-73
2022/07/02 04:26:34;;;;;;;6.07;3.60;;;;;;;13.62;98.02;101096.34;4931998;28;20059;-72
2022/07/02 04:29:01;;;;;;;6.75;4.25;;;;;;;13.66;98.51;101091.72;4932085;28;20060;-72
2022/07/02 04:31:29;;;;;;;10.20;4.22;;;;;;;13.69;98.75;101097.75;4931550;28;20102;-72
2022/07/02 04:33:56;;;;;;;5.93;4.45;;;;;;;13.70;98.74;101094.16;4932181;28;20075;-72
2022/07/02 04:36:23;;;;;;;6.90;4.47;;;;;;;13.72;98.61;101083.44;4931640;28;20055;-72
2022/07/02 04:38:49;;;;;;;7.93;4.78;;;;;;;13.81;99.17;101084.78;4927318;29;20047;-73
2022/07/02 04:41:16;;;;;;;6.60;4.60;;;;;;;13.81;98.62;101068.81;4932290;28;20583;-73
2022/07/02 04:43:42;;;;;;;7.28;4.60;;;;;;;13.79;98.19;101060.03;4927057;28;20094;-72
2022/07/02 04:46:09;;;;;;;6.35;4.65;;;;;;;14.05;97.64;101094.22;4931134;28;20064;-71
2022/07/02 04:48:36;;;;;;;8.02;4.63;;;;;;;14.11;97.22;101093.91;4931077;28;20139;-72
2022/07/02 04:51:03;;;;;;;8.00;4.78;;;;;;;14.16;96.48;101091.03;4931912;28;20083;-72
2022/07/02 04:53:30;;;;;;;9.18;4.80;;;;;;;14.07;96.43;101072.81;4931667;28;20052;-72
2022/07/02 04:55:56;;;;;;;6.00;4.53;;;;;;;14.15;96.26;101076.84;4931840;28;20048;-72
2022/07/02 04:58:23;;;;;;;6.20;4.35;;;;;;;14.34;95.69;101092.72;4930732;28;20043;-73
2022/07/02 05:00:49;;;;;;;8.52;5.22;;;;;;;14.35;94.51;101083.78;4932745;28;20495;-71
2022/07/02 05:03:16;;;;;;;5.80;4.80;;;;;;;14.51;93.80;101092.75;4932245;28;20067;-73
2022/07/02 05:05:43;;;;;;;5.65;4.20;;;;;;;14.60;93.69;101092.28;4931578;28;20079;-72
2022/07/02 05:08:09;;;;;;;7.00;5.13;;;;;;;14.66;93.73;101085.75;4931197;28;20131;-72
2022/07/02 05:10:36;;;;;;;6.53;4.80;;;;;;;14.81;93.10;101095.59;4932873;28;20047;-71
2022/07/02 05:13:05;;;;;;;5.55;4.65;;;;;;;14.89;93.00;101098.72;4933869;28;20056;-72
2022/07/02 05:15:32;;;;;;;5.30;4.32;;;;;;;15.03;92.19;101103.31;4933375;28;20416;-71
2022/07/02 05:17:59;;;;;;;8.20;4.15;;;;;;;15.13;91.35;101101.00;4931189;28;20095;-72
2022/07/02 05:20:28;;;;;;;7.18;4.68;;;;;;;15.21;91.48;101096.13;4930854;28;20082;-73
2022/07/02 05:22:54;;;;;;;5.18;4.15;;;;;;;15.22;91.20;101085.38;4931992;28;20059;-71
2022/07/02 05:25:21;;;;;;;6.32;4.70;;;;;;;15.41;90.32;101103.91;4931935;28;20132;-72
2022/07/02 05:27:47;;;;;;;6.32;5.30;;;;;;;15.50;88.56;101119.38;4931433;28;20071;-73
2022/07/02 05:30:14;;;;;;;6.43;4.82;;;;;;;15.57;87.81;101111.94;4930667;28;20111;-72
2022/07/02 05:32:41;;;;;;;8.93;5.63;;;;;;;15.62;86.99;101110.72;4930930;28;20110;-72
2022/07/02 05:35:08;;;;;;;7.13;5.82;;;;;;;15.70;86.20;101107.63;4931003;28;20059;-72
2022/07/02 05:37:34;;;;;;;6.50;5.50;;;;;;;15.74;86.14;101104.66;4930923;28;20086;-73
2022/07/02 05:40:01;;;;;;;6.38;5.70;;;;;;;15.83;85.59;101110.44;4925966;29;20112;-72
2022/07/02 05:42:28;;;;;;;6.20;5.22;;;;;;;15.84;85.17;101110.34;4930429;28;20572;-72
2022/07/02 05:44:54;;;;;;;7.53;5.45;;;;;;;15.94;84.24;101110.69;4930749;28;20576;-71
2022/07/02 05:47:21;;;;;;;7.80;5.40;;;;;;;16.00;83.98;101110.34;4931487;28;20540;-71
2022/07/02 05:49:47;;;;;;;7.55;5.32;;;;;;;16.06;82.81;101112.63;4930743;28;20059;-71
2022/07/02 05:52:17;;;;;;;6.13;5.18;;;;;;;16.05;83.43;101116.28;4930486;28;20109;-72
2022/07/02 05:54:44;;;;;;;6.35;5.20;;;;;;;16.13;83.67;101122.03;4931020;28;20051;-71
2022/07/02 05:57:11;;;;;;;7.45;5.43;;;;;;;16.24;83.02;101116.91;4930034;28;20048;-72
2022/07/02 05:59:41;;;;;;;5.53;5.03;;;;;;;16.34;82.11;101122.59;4930076;28;20083;-73
2022/07/02 06:02:07;;;;;;;6.50;5.20;;;;;;;16.38;82.03;101116.06;4930479;28;20114;-73
2022/07/02 06:04:34;;;;;;;6.97;5.57;;;;;;;16.45;81.26;101120.97;4930468;28;20095;-73
2022/07/02 06:09:47;;;;;;;5.10;4.55;;;;;;;16.70;80.15;101119.53;4926669;28;20649;-74
2022/07/02 06:12:14;;;;;;;5.43;4.85;;;;;;;16.90;78.89;101104.94;4929818;28;20087;-73
2022/07/02 06:14:40;;;;;;;6.78;4.63;;;;;;;17.10;77.80;101099.22;4930505;28;20071;-72
2022/07/02 06:17:09;;;;;;;6.97;4.35;;;;;;;17.57;75.10;101122.94;4930844;28;20059;-73
2022/07/02 06:19:38;;;;;;;6.07;4.43;;;;;;;17.78;73.87;101126.97;4929696;28;20052;-73
2022/07/02 06:22:06;;;;;;;4.82;4.05;;;;;;;18.14;73.70;101115.59;4930205;28;20712;-72
2022/07/02 06:24:32;;;;;;;4.63;3.78;;;;;;;18.79;70.59;101122.81;4929695;28;20122;-72
2022/07/02 06:27:00;;;;;;;4.55;3.42;;;;;;;19.38;68.52;101121.25;4930490;28;20075;-73
2022/07/02 06:29:27;;;;;;;4.50;3.80;;;;;;;19.91;64.90;101127.28;4929797;28;20048;-72
2022/07/02 06:31:53;;;;;;;7.80;4.45;;;;;;;20.10;63.93;101132.13;4930175;28;20052;-72
2022/07/02 06:34:20;;;;;;;5.63;3.35;;;;;;;20.49;62.73;101125.56;4929635;28;20035;-72
2022/07/02 06:36:47;;;;;;;5.57;4.20;;;;;;;20.92;59.43;101126.66;4930811;28;20051;-72
2022/07/02 06:39:14;;;;;;;4.85;3.85;;;;;;;20.89;60.54;101134.13;4929141;28;20090;-72
2022/07/02 06:44:26;;;;;;;4.82;3.50;;;;;;;20.87;59.76;101110.00;4929108;28;20087;-73
2022/07/02 06:46:52;;;;;;;5.20;3.50;;;;;;;21.20;59.31;101121.81;4929742;28;20465;-73
2022/07/02 06:49:19;;;;;;;3.65;3.17;;;;;;;21.52;58.88;101114.69;4929441;28;20150;-73
2022/07/02 06:51:46;;;;;;;5.55;3.60;;;;;;;21.63;58.73;101133.53;4929326;28;20070;-73
2022/07/02 06:54:13;;;;;;;3.92;2.90;;;;;;;21.95;57.56;101128.19;4929280;28;20646;-73
2022/07/02 06:56:39;;;;;;;3.92;3.53;;;;;;;22.41;53.90;101108.16;4929759;28;20552;-73
2022/07/02 06:59:06;;;;;;;9.55;3.50;;;;;;;22.82;52.61;101114.59;4929072;28;20140;-72
2022/07/02 07:01:33;;;;;;;4.13;3.20;;;;;;;23.26;53.94;101125.03;4929763;28;20079;-74
2022/07/02 07:04:00;;;;;;;7.88;3.28;;;;;;;23.45;51.09;101129.69;4929839;28;20453;-72
2022/07/02 07:06:37;;;;;;;4.82;3.10;;;;;;;23.48;50.91;101132.09;4928951;28;20059;-72
2022/07/02 07:09:03;;;;;;;6.20;3.45;;;;;;;23.25;51.21;101134.16;4929177;28;20094;-72
2022/07/02 07:11:30;;;;;;;4.10;3.13;;;;;;;23.31;50.78;101111.97;4929113;28;20059;-72
2022/07/02 07:13:56;;;;;;;3.53;2.85;;;;;;;23.47;52.24;101124.09;4929213;28;20174;-72
2022/07/02 07:16:23;;;;;;;4.85;3.20;;;;;;;23.49;51.43;101127.53;4927097;28;20119;-73
2022/07/02 07:19:00;;;;;;;5.20;2.80;;;;;;;23.29;52.10;101124.78;4927811;28;20047;-73
2022/07/02 07:21:26;;;;;;;4.55;3.25;;;;;;;23.44;50.83;101127.97;4928969;28;20130;-72
2022/07/02 07:23:53;;;;;;;5.00;3.13;;;;;;;23.63;49.55;101127.19;4929416;28;20055;-72
2022/07/02 07:26:20;;;;;;;4.32;3.30;;;;;;;23.49;50.05;101117.56;4928380;28;20051;-72
2022/07/02 07:28:46;;;;;;;5.85;2.83;;;;;;;23.32;50.45;101094.75;4928342;28;20056;-72
2022/07/02 07:31:13;;;;;;;5.45;3.20;;;;;;;23.01;51.10;101103.88;4928984;28;20052;-73
2022/07/02 07:33:40;;;;;;;8.07;3.13;;;;;;;23.22;49.87;101125.44;4929179;28;20699;-72
2022/07/02 07:36:06;;;;;;;3.90;3.13;;;;;;;23.31;50.58;101120.06;4929294;28;20051;-73
2022/07/02 07:38:33;;;;;;;4.75;3.00;;;;;;;23.60;49.05;101119.38;4928047;28;20048;-73
2022/07/02 07:41:00;;;;;;;3.80;2.63;;;;;;;23.83;48.68;101123.53;4928534;28;20059;-72
2022/07/02 07:43:26;;;;;;;6.30;2.97;;;;;;;23.76;50.88;101122.41;4928932;28;20115;-73
2022/07/02 07:45:54;;;;;;;3.88;2.40;;;;;;;23.93;48.99;101112.72;4928827;28;20115;-72
2022/07/02 07:48:21;;;;;;;5.30;2.42;;;;;;;23.99;49.06;101112.16;4927881;28;20055;-72
2022/07/02 07:50:47;;;;;;;5.13;3.05;;;;;;;24.25;46.33;101117.88;4929712;28;20068;-74
2022/07/02 07:53:14;;;;;;;5.10;2.88;;;;;;;24.26;47.43;101120.47;4929890;28;20058;-73
2022/07/02 07:55:41;;;;;;;3.65;2.63;;;;;;;24.07;47.38;101115.03;4930765;28;20413;-72
2022/07/02 07:58:08;;;;;;;5.13;3.20;;;;;;;24.25;46.18;101110.63;4931596;28;20468;-71
2022/07/02 08:00:34;;;;;;;5.35;2.95;;;;;;;24.38;46.38;101116.63;4932805;28;20066;-73
2022/07/02 08:03:01;;;;;;;3.97;2.30;;;;;;;24.53;46.14;101110.78;4933315;28;20575;-74
2022/07/02 08:05:28;;;;;;;3.45;2.38;;;;;;;24.74;45.03;101109.56;4933832;28;20615;-73
2022/07/02 08:07:55;;;;;;;3.35;2.20;;;;;;;24.78;44.18;101077.63;4927724;29;20451;-73
2022/07/02 08:10:21;;;;;;;2.95;2.50;;;;;;;24.75;44.67;101099.59;4931997;28;20122;-73
2022/07/02 08:12:49;;;;;;;2.97;2.15;;;;;;;24.31;44.52;101092.97;4932487;28;20078;-74
2022/07/02 08:15:16;;;;;;;2.90;1.58;;;;;;;24.48;41.42;101079.56;4932977;28;20669;-73
2022/07/02 08:17:43;;;;;;;2.15;1.80;;;;;;;24.88;40.65;101101.97;4931987;28;20055;-74
2022/07/02 08:20:11;;;;;;;3.55;1.80;;;;;;;25.02;41.29;101093.44;4932095;28;20106;-73
2022/07/02 08:22:38;;;;;;;3.92;1.90;;;;;;;25.30;41.01;101084.31;4932584;28;20099;-73
2022/07/02 08:25:07;;;;;;;2.63;1.63;;;;;;;25.48;40.02;101087.94;4932364;28;20067;-73
2022/07/02 08:27:33;;;;;;;2.63;1.58;;;;;;;25.52;38.78;101081.19;4931652;28;20530;-73
2022/07/02 08:30:00;;;;;;;3.92;1.75;;;;;;;25.16;39.49;101087.53;4931539;28;20122;-73
2022/07/02 08:32:27;;;;;;;5.55;1.90;;;;;;;24.26;41.81;101089.81;4931893;28;20047;-73
2022/07/02 08:34:55;;;;;;;3.10;1.70;;;;;;;23.50;43.01;101075.19;4932665;28;20047;-73
2022/07/02 08:37:22;;;;;;;2.78;1.85;;;;;;;23.34;43.97;101092.78;4932440;28;20044;-73
2022/07/02 08:39:49;;;;;;;2.55;1.60;;;;;;;23.31;44.26;101087.63;4931122;28;20043;-73
2022/07/02 08:42:30;;;;;;;4.07;1.83;;;;;;;23.17;44.74;101088.03;4931918;28;20059;-72
2022/07/02 08:45:00;;;;;;;2.92;1.45;;;;;;;23.60;43.79;101095.03;4931827;28;20048;-73
2022/07/02 08:47:27;;;;;;;;;;;;;;;23.95;42.99;101089.09;4932580;28;20079;-73
2022/07/02 08:49:55;;;;;;;2.78;1.60;;;;;;;24.20;43.28;101084.97;4931528;28;20414;-72
2022/07/02 08:52:24;;;;;;;4.95;1.85;;;;;;;24.18;42.14;101084.25;4930766;28;20135;-74
2022/07/02 08:54:52;;;;;;;4.40;1.65;;;;;;;23.79;43.03;101082.38;4931905;28;20163;-73
2022/07/02 08:57:21;;;;;;;5.30;1.67;;;;;;;23.60;43.30;101082.38;4929179;28;20131;-74
2022/07/02 08:59:48;;;;;;;4.78;1.98;;;;;;;23.35;43.77;101080.97;4931490;28;20047;-74
2022/07/02 09:02:16;;;;;;;6.50;1.30;;;;;;;23.46;43.04;101071.88;4925884;28;20060;-74
2022/07/02 09:04:48;;;;;;;1.70;1.23;;;;;;;23.65;41.62;101073.81;4931659;28;20059;-75
2022/07/02 09:07:16;;;;;;;4.43;1.17;;;;;;;24.02;42.36;101061.34;4933637;28;20114;-73
2022/07/02 09:09:43;;;;;;;2.55;1.48;;;;;;;24.28;41.90;101058.06;4941064;28;20040;-73
2022/07/02 09:12:14;;;;;;;2.78;1.27;;;;;;;24.61;41.56;101059.44;4930615;28;20808;-74
2022/07/02 09:14:42;;;;;;;2.20;1.65;;;;;;;24.87;40.31;101054.25;4931112;28;20047;-75
2022/07/02 09:17:12;;;;;;;2.85;1.50;;;;;;;25.05;39.32;101037.06;4931748;28;20056;-73
2022/07/02 09:19:40;;;;;;;2.40;1.10;;;;;;;25.53;39.10;101053.06;4937161;28;20136;-74
2022/07/02 09:22:08;;;;;;;4.45;1.42;;;;;;;25.67;37.82;101049.00;4931046;28;20074;-73
2022/07/02 09:24:42;;;;;;;2.10;1.20;;;;;;;25.39;38.97;101045.44;4931350;28;20050;-73
2022/07/02 09:27:12;;;;;;;2.55;1.10;;;;;;;25.11;39.44;101039.19;4930587;28;20052;-73
2022/07/02 09:29:43;;;;;;;4.30;1.20;;;;;;;25.11;38.79;101041.03;4930529;28;20126;-74
2022/07/02 09:32:11;;;;;;;4.28;1.02;;;;;;;25.01;37.38;101038.38;4930403;28;20123;-73
2022/07/02 09:34:52;;;;;;;2.03;0.77;;;;;;;25.01;35.10;101041.09;4930109;28;20531;-73
2022/07/02 09:37:21;;;;;;;3.80;0.93;;;;;;;24.81;34.58;101029.44;4930310;28;20055;-74
2022/07/02 09:39:50;;;;;;;0.90;0.75;;;;;;;24.79;35.32;101036.00;4926018;29;20087;-73
2022/07/02 09:42:48;;;;;;;3.10;1.05;;;;;;;24.69;36.59;101029.78;4930228;28;20083;-73
2022/07/02 09:45:16;;;;;;;0.90;0.68;;;;;;;24.65;36.16;101037.34;4927096;28;20504;-72
2022/07/02 09:47:51;;;;;;;2.28;0.65;;;;;;;24.72;34.80;101041.16;4927778;28;20500;-72
2022/07/02 09:50:20;;;;;;;3.60;0.90;;;;;;;24.89;35.13;101023.25;4929970;28;20437;-73
2022/07/02 09:52:55;;;;;;;1.58;0.50;;;;;;;24.98;35.04;101005.31;4930267;28;20059;-72
2022/07/02 09:55:30;;;;;;;1.48;0.85;;;;;;;25.12;34.60;101021.91;4930416;28;20075;-73
2022/07/02 09:58:02;;;;;;;2.58;0.55;;;;;;;24.76;34.72;101018.19;4928141;28;20643;-72
2022/07/02 10:00:31;;;;;;;2.03;1.00;;;;;;;24.65;35.30;101017.53;4930080;28;20071;-71
2022/07/02 10:03:01;;;;;;;4.10;0.70;;;;;;;24.75;34.25;101011.06;4930529;28;20044;-74
2022/07/02 10:05:33;;;;;;;1.38;0.60;;;;;;;24.66;33.42;101008.41;4929918;28;20087;-72
2022/07/02 10:08:02;;;;;;;1.98;0.60;;;;;;;24.57;34.36;101010.13;4925186;29;20047;-72
2022/07/02 10:10:40;;;;;;;1.33;0.85;;;;;;;24.76;33.29;100996.53;4929408;28;20067;-73
2022/07/02 10:13:08;;;;;;;2.78;0.75;;;;;;;24.96;33.94;101007.31;4930718;28;20043;-72
2022/07/02 10:15:52;;;;;;;2.80;0.70;;;;;;;25.22;33.72;101002.03;4930986;28;20107;-74
2022/07/02 10:18:19;;;;;;;1.13;0.52;;;;;;;24.99;32.50;100991.63;4928790;28;20055;-73
2022/07/02 10:20:47;;;;;;;0.68;0.35;;;;;;;24.97;32.99;100980.06;4928827;28;20059;-75
2022/07/02 10:23:14;;;;;;;1.92;0.70;;;;;;;25.14;33.25;100981.13;4930509;28;20083;-73
2022/07/02 10:25:43;;;;;;;2.25;0.50;;;;;;;25.30;32.43;100986.72;4930565;28;20068;-72
2022/07/02 10:28:09;;;;;;;2.33;0.50;;;;;;;25.28;31.74;100977.88;4929219;28;20063;-71
2022/07/02 10:30:36;;;;;;;1.25;0.50;;;;;;;25.20;31.96;100982.34;4930288;28;20070;-73
2022/07/02 10:33:28;;;;;;;1.23;0.40;;;;;;;25.12;32.18;100959.59;4931157;28;20047;-72
2022/07/02 10:35:55;;;;;;;1.70;0.60;;;;;;;25.19;31.85;100967.94;4930756;28;20043;-72
2022/07/02 10:38:33;;;;;;;1.83;0.60;;;;;;;25.34;32.30;100971.84;4928393;28;20059;-72
2022/07/02 10:41:01;;;;;;;2.47;0.60;;;;;;;25.42;31.83;100974.66;4924606;28;20056;-72
2022/07/02 10:43:29;;;;;;;0.57;0.50;;;;;;;25.54;31.75;100977.97;4930536;28;20051;-73
2022/07/02 10:46:09;;;;;;;0.45;0.40;;;;;;;25.74;31.39;100981.44;4931840;28;20103;-72
2022/07/02 10:48:51;;;;;;;5.25;1.00;;;;;;;25.86;31.48;100972.03;4928496;28;20051;-72
2022/07/02 10:51:29;;;;;;;1.08;0.60;;;;;;;25.99;30.62;100961.63;4929194;28;20083;-74
2022/07/02 10:54:01;;;;;;;3.22;0.60;;;;;;;26.12;30.69;100959.38;4926367;28;20036;-73
2022/07/02 10:56:29;;;;;;;0.90;0.50;;;;;;;26.30;30.71;100961.19;4927316;28;20051;-72
2022/07/02 10:58:56;;;;;;;2.10;0.70;;;;;;;26.41;30.59;100955.50;4923911;28;20147;-74
2022/07/02 11:01:24;;;;;;;1.65;0.80;;;;;;;26.43;30.97;100948.06;4930174;28;20059;-74
2022/07/02 11:03:55;;;;;;;1.42;0.50;;;;;;;26.47;30.50;100939.41;4924289;28;20048;-73
2022/07/02 11:06:23;;;;;;;1.55;0.43;;;;;;;26.56;30.34;100945.75;4928747;28;20052;-72
2022/07/02 11:08:52;;;;;;;0.88;0.70;;;;;;;26.53;29.66;100943.34;4929117;28;20111;-73
2022/07/02 11:11:36;;;;;;;1.85;0.60;;;;;;;26.43;31.00;100931.75;4929472;28;20151;-73
2022/07/02 11:14:13;;;;;;;0.95;0.40;;;;;;;26.29;31.77;100933.19;4930090;28;20051;-73
2022/07/02 11:16:49;;;;;;;0.85;0.50;;;;;;;26.34;30.73;100935.44;4929639;28;20408;-72
2022/07/02 11:19:25;;;;;;;1.15;0.60;;;;;;;26.25;31.29;100928.22;4929357;28;20126;-74
2022/07/02 11:21:54;;;;;;;2.50;0.73;;;;;;;26.26;32.11;100919.06;4930115;28;20048;-72
2022/07/02 11:24:27;;;;;;;2.45;0.57;;;;;;;26.36;31.29;100922.53;4929473;28;20401;-74
2022/07/02 11:26:53;;;;;;;1.80;0.63;;;;;;;26.37;30.87;100922.38;4929618;28;20051;-72
2022/07/02 11:29:20;;;;;;;5.35;1.92;;;;;;;26.47;31.21;100912.25;4929911;28;20048;-73
2022/07/02 11:31:49;;;;;;;3.00;1.30;;;;;;;26.76;31.78;100917.28;4935736;28;20052;-72
2022/07/02 11:34:19;;;;;;;0.65;0.60;;;;;;;26.18;31.24;100918.00;4936033;28;20043;-73